sensor_id;sensor_type;location;lat;lon;timestamp;P1;durP1;ratioP1;P2;durP2;ratioP2
35675;SDS011;21790;42.668;23.298;2023-02-12T00:01:16;18.33;;;9.70;;
35675;SDS011;21790;42.668;23.298;2023-02-12T00:03:42;18.85;;;9.80;;
35675;SDS011;21790;42.668;23.298;2023-02-12T00:06:08;17.05;;;9.05;;
35675;SDS011;21790;42.668;23.298;2023-02-12T00:08:35;16.63;;;10.00;;
35675;SDS011;21790;42.668;23.298;2023-02-12T00:11:08;22.52;;;10.18;;
35675;SDS011;21790;42.668;23.298;2023-02-12T00:13:35;16.95;;;8.45;;
35675;SDS011;21790;42.668;23.298;2023-02-12T00:16:08;17.40;;;9.23;;
35675;SDS011;21790;42.668;23.298;2023-02-12T00:18:44;17.13;;;9.25;;
35675;SDS011;21790;42.668;23.298;2023-02-12T00:21:10;19.95;;;9.40;;
35675;SDS011;21790;42.668;23.298;2023-02-12T00:23:38;18.50;;;8.98;;
35675;SDS011;21790;42.668;23.298;2023-02-12T00:26:10;16.83;;;9.13;;
35675;SDS011;21790;42.668;23.298;2023-02-12T00:28:37;18.92;;;10.82;;
35675;SDS011;21790;42.668;23.298;2023-02-12T00:31:10;21.13;;;9.05;;
35675;SDS011;21790;42.668;23.298;2023-02-12T00:33:37;20.00;;;9.32;;
35675;SDS011;21790;42.668;23.298;2023-02-12T00:36:04;16.88;;;9.18;;
35675;SDS011;21790;42.668;23.298;2023-02-12T00:38:30;15.75;;;9.82;;
35675;SDS011;21790;42.668;23.298;2023-02-12T00:40:56;18.27;;;10.52;;
35675;SDS011;21790;42.668;23.298;2023-02-12T00:43:21;16.30;;;9.10;;
35675;SDS011;21790;42.668;23.298;2023-02-12T00:45:47;18.83;;;8.85;;
35675;SDS011;21790;42.668;23.298;2023-02-12T00:48:13;18.55;;;9.88;;
35675;SDS011;21790;42.668;23.298;2023-02-12T00:50:39;22.45;;;9.30;;
35675;SDS011;21790;42.668;23.298;2023-02-12T00:53:07;17.17;;;8.80;;
35675;SDS011;21790;42.668;23.298;2023-02-12T00:55:33;21.77;;;9.55;;
35675;SDS011;21790;42.668;23.298;2023-02-12T00:57:59;14.13;;;8.65;;
35675;SDS011;21790;42.668;23.298;2023-02-12T01:00:24;17.52;;;8.82;;
35675;SDS011;21790;42.668;23.298;2023-02-12T01:02:50;14.80;;;8.70;;
35675;SDS011;21790;42.668;23.298;2023-02-12T01:05:15;16.02;;;8.60;;
35675;SDS011;21790;42.668;23.298;2023-02-12T01:07:42;14.60;;;8.63;;
35675;SDS011;21790;42.668;23.298;2023-02-12T01:10:08;16.58;;;8.95;;
35675;SDS011;21790;42.668;23.298;2023-02-12T01:12:33;20.92;;;9.35;;
35675;SDS011;21790;42.668;23.298;2023-02-12T01:14:59;15.88;;;9.15;;
35675;SDS011;21790;42.668;23.298;2023-02-12T01:17:24;14.73;;;8.85;;
35675;SDS011;21790;42.668;23.298;2023-02-12T01:19:50;19.92;;;9.55;;
35675;SDS011;21790;42.668;23.298;2023-02-12T01:22:15;16.70;;;8.80;;
35675;SDS011;21790;42.668;23.298;2023-02-12T01:24:41;15.75;;;9.80;;
35675;SDS011;21790;42.668;23.298;2023-02-12T01:27:07;22.15;;;10.00;;
35675;SDS011;21790;42.668;23.298;2023-02-12T01:29:32;19.00;;;9.55;;
35675;SDS011;21790;42.668;23.298;2023-02-12T01:31:58;16.85;;;9.85;;
35675;SDS011;21790;42.668;23.298;2023-02-12T01:34:23;18.38;;;9.48;;
35675;SDS011;21790;42.668;23.298;2023-02-12T01:36:49;24.77;;;12.40;;
35675;SDS011;21790;42.668;23.298;2023-02-12T01:39:14;31.80;;;14.60;;
35675;SDS011;21790;42.668;23.298;2023-02-12T01:41:41;34.90;;;16.33;;
35675;SDS011;21790;42.668;23.298;2023-02-12T01:44:09;19.73;;;11.50;;
35675;SDS011;21790;42.668;23.298;2023-02-12T01:46:42;28.85;;;14.18;;
35675;SDS011;21790;42.668;23.298;2023-02-12T01:49:19;30.45;;;15.68;;
35675;SDS011;21790;42.668;23.298;2023-02-12T01:51:50;27.80;;;12.82;;
35675;SDS011;21790;42.668;23.298;2023-02-12T01:54:19;32.22;;;14.73;;
35675;SDS011;21790;42.668;23.298;2023-02-12T01:56:46;31.52;;;14.30;;
35675;SDS011;21790;42.668;23.298;2023-02-12T01:59:13;19.20;;;10.52;;
35675;SDS011;21790;42.668;23.298;2023-02-12T02:01:38;23.42;;;12.25;;
35675;SDS011;21790;42.668;23.298;2023-02-12T02:04:05;22.70;;;12.63;;
35675;SDS011;21790;42.668;23.298;2023-02-12T02:06:35;26.80;;;12.48;;
35675;SDS011;21790;42.668;23.298;2023-02-12T02:09:07;25.65;;;12.43;;
35675;SDS011;21790;42.668;23.298;2023-02-12T02:11:32;21.73;;;11.73;;
35675;SDS011;21790;42.668;23.298;2023-02-12T02:14:16;23.60;;;11.80;;
35675;SDS011;21790;42.668;23.298;2023-02-12T02:17:09;23.80;;;11.27;;
35675;SDS011;21790;42.668;23.298;2023-02-12T02:33:21;21.10;;;11.60;;
35675;SDS011;21790;42.668;23.298;2023-02-12T02:35:54;23.48;;;12.10;;
35675;SDS011;21790;42.668;23.298;2023-02-12T02:41:18;21.30;;;11.13;;
35675;SDS011;21790;42.668;23.298;2023-02-12T02:43:51;19.58;;;10.85;;
35675;SDS011;21790;42.668;23.298;2023-02-12T02:46:31;25.00;;;11.00;;
35675;SDS011;21790;42.668;23.298;2023-02-12T02:49:04;21.92;;;11.65;;
35675;SDS011;21790;42.668;23.298;2023-02-12T02:51:33;21.73;;;11.63;;
35675;SDS011;21790;42.668;23.298;2023-02-12T02:54:25;23.38;;;11.18;;
35675;SDS011;21790;42.668;23.298;2023-02-12T02:56:52;23.85;;;11.80;;
35675;SDS011;21790;42.668;23.298;2023-02-12T02:59:24;26.25;;;12.30;;
35675;SDS011;21790;42.668;23.298;2023-02-12T03:01:58;22.90;;;11.38;;
35675;SDS011;21790;42.668;23.298;2023-02-12T03:04:29;26.58;;;11.48;;
35675;SDS011;21790;42.668;23.298;2023-02-12T03:07:07;21.65;;;11.20;;
35675;SDS011;21790;42.668;23.298;2023-02-12T03:09:39;27.05;;;12.18;;
35675;SDS011;21790;42.668;23.298;2023-02-12T03:15:09;24.17;;;11.73;;
35675;SDS011;21790;42.668;23.298;2023-02-12T03:17:40;25.02;;;12.60;;
35675;SDS011;21790;42.668;23.298;2023-02-12T03:22:46;23.38;;;12.48;;
35675;SDS011;21790;42.668;23.298;2023-02-12T03:25:25;26.33;;;12.77;;
35675;SDS011;21790;42.668;23.298;2023-02-12T03:31:19;26.48;;;13.27;;
35675;SDS011;21790;42.668;23.298;2023-02-12T03:33:42;26.67;;;12.45;;
35675;SDS011;21790;42.668;23.298;2023-02-12T03:38:55;26.10;;;12.52;;
35675;SDS011;21790;42.668;23.298;2023-02-12T03:44:49;31.35;;;14.13;;
35675;SDS011;21790;42.668;23.298;2023-02-12T03:47:33;29.83;;;13.73;;
35675;SDS011;21790;42.668;23.298;2023-02-12T03:52:48;29.33;;;14.13;;
35675;SDS011;21790;42.668;23.298;2023-02-12T03:55:15;29.95;;;14.60;;
35675;SDS011;21790;42.668;23.298;2023-02-12T03:57:42;33.35;;;14.75;;
35675;SDS011;21790;42.668;23.298;2023-02-12T04:00:19;30.65;;;14.30;;
35675;SDS011;21790;42.668;23.298;2023-02-12T04:02:47;27.00;;;14.57;;
35675;SDS011;21790;42.668;23.298;2023-02-12T04:05:26;35.28;;;14.90;;
35675;SDS011;21790;42.668;23.298;2023-02-12T04:07:52;30.63;;;15.35;;
35675;SDS011;21790;42.668;23.298;2023-02-12T04:18:41;28.13;;;15.02;;
35675;SDS011;21790;42.668;23.298;2023-02-12T04:21:17;32.60;;;17.33;;
35675;SDS011;21790;42.668;23.298;2023-02-12T04:26:23;32.67;;;16.95;;
35675;SDS011;21790;42.668;23.298;2023-02-12T04:31:34;37.45;;;17.90;;
35675;SDS011;21790;42.668;23.298;2023-02-12T04:34:25;35.13;;;16.80;;
35675;SDS011;21790;42.668;23.298;2023-02-12T04:39:50;35.47;;;16.55;;
35675;SDS011;21790;42.668;23.298;2023-02-12T04:42:17;27.95;;;15.38;;
35675;SDS011;21790;42.668;23.298;2023-02-12T04:44:43;28.95;;;14.90;;
35675;SDS011;21790;42.668;23.298;2023-02-12T04:47:12;30.02;;;15.93;;
35675;SDS011;21790;42.668;23.298;2023-02-12T04:49:39;34.47;;;16.55;;
35675;SDS011;21790;42.668;23.298;2023-02-12T04:52:04;34.78;;;16.38;;
35675;SDS011;21790;42.668;23.298;2023-02-12T04:54:30;29.83;;;16.08;;
35675;SDS011;21790;42.668;23.298;2023-02-12T04:56:56;37.75;;;18.45;;
35675;SDS011;21790;42.668;23.298;2023-02-12T04:59:21;42.17;;;21.40;;
35675;SDS011;21790;42.668;23.298;2023-02-12T05:01:47;38.30;;;19.05;;
35675;SDS011;21790;42.668;23.298;2023-02-12T05:04:13;40.42;;;19.83;;
35675;SDS011;21790;42.668;23.298;2023-02-12T05:06:40;42.28;;;20.13;;
35675;SDS011;21790;42.668;23.298;2023-02-12T05:09:07;45.05;;;20.30;;
35675;SDS011;21790;42.668;23.298;2023-02-12T05:11:34;37.53;;;18.98;;
35675;SDS011;21790;42.668;23.298;2023-02-12T05:14:00;38.15;;;17.73;;
35675;SDS011;21790;42.668;23.298;2023-02-12T05:16:25;33.30;;;17.75;;
35675;SDS011;21790;42.668;23.298;2023-02-12T05:18:51;33.70;;;15.68;;
35675;SDS011;21790;42.668;23.298;2023-02-12T05:21:16;29.80;;;15.73;;
35675;SDS011;21790;42.668;23.298;2023-02-12T05:23:42;28.80;;;14.30;;
35675;SDS011;21790;42.668;23.298;2023-02-12T05:26:12;29.60;;;13.95;;
35675;SDS011;21790;42.668;23.298;2023-02-12T05:28:39;24.52;;;13.40;;
35675;SDS011;21790;42.668;23.298;2023-02-12T05:31:06;26.75;;;13.35;;
35675;SDS011;21790;42.668;23.298;2023-02-12T05:33:33;26.55;;;12.88;;
35675;SDS011;21790;42.668;23.298;2023-02-12T05:36:05;26.08;;;13.63;;
35675;SDS011;21790;42.668;23.298;2023-02-12T05:38:33;28.73;;;13.18;;
35675;SDS011;21790;42.668;23.298;2023-02-12T05:41:12;26.60;;;13.40;;
35675;SDS011;21790;42.668;23.298;2023-02-12T05:43:39;31.42;;;13.98;;
35675;SDS011;21790;42.668;23.298;2023-02-12T05:46:05;26.08;;;14.02;;
35675;SDS011;21790;42.668;23.298;2023-02-12T05:48:31;32.60;;;15.65;;
35675;SDS011;21790;42.668;23.298;2023-02-12T05:51:05;35.00;;;15.80;;
35675;SDS011;21790;42.668;23.298;2023-02-12T05:53:41;32.83;;;15.07;;
35675;SDS011;21790;42.668;23.298;2023-02-12T05:58:35;29.92;;;15.52;;
35675;SDS011;21790;42.668;23.298;2023-02-12T06:01:01;31.73;;;14.50;;
35675;SDS011;21790;42.668;23.298;2023-02-12T06:03:27;29.75;;;14.88;;
35675;SDS011;21790;42.668;23.298;2023-02-12T06:05:52;31.48;;;15.38;;
35675;SDS011;21790;42.668;23.298;2023-02-12T06:08:18;32.25;;;15.15;;
35675;SDS011;21790;42.668;23.298;2023-02-12T06:10:44;27.27;;;12.98;;
35675;SDS011;21790;42.668;23.298;2023-02-12T06:13:09;26.90;;;13.30;;
35675;SDS011;21790;42.668;23.298;2023-02-12T06:15:35;29.67;;;13.90;;
35675;SDS011;21790;42.668;23.298;2023-02-12T06:18:01;26.92;;;14.27;;
35675;SDS011;21790;42.668;23.298;2023-02-12T06:20:26;27.48;;;13.20;;
35675;SDS011;21790;42.668;23.298;2023-02-12T06:22:51;23.88;;;13.32;;
35675;SDS011;21790;42.668;23.298;2023-02-12T06:25:17;28.00;;;14.23;;
35675;SDS011;21790;42.668;23.298;2023-02-12T06:27:43;27.92;;;12.88;;
35675;SDS011;21790;42.668;23.298;2023-02-12T06:30:08;24.23;;;12.20;;
35675;SDS011;21790;42.668;23.298;2023-02-12T06:32:34;25.63;;;12.85;;
35675;SDS011;21790;42.668;23.298;2023-02-12T06:35:00;25.15;;;12.63;;
35675;SDS011;21790;42.668;23.298;2023-02-12T06:37:25;28.33;;;16.05;;
35675;SDS011;21790;42.668;23.298;2023-02-12T06:39:51;26.80;;;13.65;;
35675;SDS011;21790;42.668;23.298;2023-02-12T06:42:16;25.00;;;12.77;;
35675;SDS011;21790;42.668;23.298;2023-02-12T06:44:41;22.70;;;12.55;;
35675;SDS011;21790;42.668;23.298;2023-02-12T06:47:07;24.85;;;12.35;;
35675;SDS011;21790;42.668;23.298;2023-02-12T06:49:32;24.02;;;13.23;;
35675;SDS011;21790;42.668;23.298;2023-02-12T06:51:58;22.77;;;11.93;;
35675;SDS011;21790;42.668;23.298;2023-02-12T06:54:23;26.95;;;12.60;;
35675;SDS011;21790;42.668;23.298;2023-02-12T06:56:49;23.08;;;12.15;;
35675;SDS011;21790;42.668;23.298;2023-02-12T06:59:15;22.58;;;12.32;;
35675;SDS011;21790;42.668;23.298;2023-02-12T07:01:41;24.77;;;12.68;;
35675;SDS011;21790;42.668;23.298;2023-02-12T07:04:06;23.08;;;12.70;;
35675;SDS011;21790;42.668;23.298;2023-02-12T07:06:33;25.20;;;13.25;;
35675;SDS011;21790;42.668;23.298;2023-02-12T07:08:59;23.58;;;12.57;;
35675;SDS011;21790;42.668;23.298;2023-02-12T07:11:26;21.92;;;12.65;;
35675;SDS011;21790;42.668;23.298;2023-02-12T07:13:53;25.27;;;12.23;;
35675;SDS011;21790;42.668;23.298;2023-02-12T07:16:19;25.20;;;12.27;;
35675;SDS011;21790;42.668;23.298;2023-02-12T07:18:45;25.10;;;12.73;;
35675;SDS011;21790;42.668;23.298;2023-02-12T07:21:11;27.17;;;13.32;;
35675;SDS011;21790;42.668;23.298;2023-02-12T07:23:38;24.23;;;13.10;;
35675;SDS011;21790;42.668;23.298;2023-02-12T07:26:05;26.63;;;14.02;;
35675;SDS011;21790;42.668;23.298;2023-02-12T07:28:33;24.60;;;13.40;;
35675;SDS011;21790;42.668;23.298;2023-02-12T07:30:59;25.23;;;14.13;;
35675;SDS011;21790;42.668;23.298;2023-02-12T07:33:30;17.75;;;10.27;;
35675;SDS011;21790;42.668;23.298;2023-02-12T07:35:58;24.20;;;13.63;;
35675;SDS011;21790;42.668;23.298;2023-02-12T07:38:24;26.10;;;13.30;;
35675;SDS011;21790;42.668;23.298;2023-02-12T07:40:50;24.27;;;14.13;;
35675;SDS011;21790;42.668;23.298;2023-02-12T07:43:15;25.98;;;13.23;;
35675;SDS011;21790;42.668;23.298;2023-02-12T07:45:41;29.48;;;15.52;;
35675;SDS011;21790;42.668;23.298;2023-02-12T07:48:06;30.95;;;16.42;;
35675;SDS011;21790;42.668;23.298;2023-02-12T07:50:31;31.98;;;16.55;;
35675;SDS011;21790;42.668;23.298;2023-02-12T07:52:57;34.30;;;17.70;;
35675;SDS011;21790;42.668;23.298;2023-02-12T07:55:23;32.50;;;14.57;;
35675;SDS011;21790;42.668;23.298;2023-02-12T08:02:59;29.10;;;16.08;;
35675;SDS011;21790;42.668;23.298;2023-02-12T08:05:25;33.50;;;17.73;;
35675;SDS011;21790;42.668;23.298;2023-02-12T08:07:52;32.65;;;17.20;;
35675;SDS011;21790;42.668;23.298;2023-02-12T08:10:17;34.17;;;18.77;;
35675;SDS011;21790;42.668;23.298;2023-02-12T08:12:48;39.78;;;20.20;;
35675;SDS011;21790;42.668;23.298;2023-02-12T08:15:14;35.08;;;18.38;;
35675;SDS011;21790;42.668;23.298;2023-02-12T08:17:39;40.15;;;19.92;;
35675;SDS011;21790;42.668;23.298;2023-02-12T08:20:07;36.72;;;21.00;;
35675;SDS011;21790;42.668;23.298;2023-02-12T08:22:33;39.97;;;21.80;;
35675;SDS011;21790;42.668;23.298;2023-02-12T08:24:58;40.35;;;20.08;;
35675;SDS011;21790;42.668;23.298;2023-02-12T08:27:24;36.22;;;19.10;;
35675;SDS011;21790;42.668;23.298;2023-02-12T08:29:49;37.58;;;18.63;;
35675;SDS011;21790;42.668;23.298;2023-02-12T08:32:15;32.88;;;18.70;;
35675;SDS011;21790;42.668;23.298;2023-02-12T08:34:41;31.55;;;17.65;;
35675;SDS011;21790;42.668;23.298;2023-02-12T08:37:06;35.85;;;18.25;;
35675;SDS011;21790;42.668;23.298;2023-02-12T08:39:32;34.33;;;18.73;;
35675;SDS011;21790;42.668;23.298;2023-02-12T08:41:58;36.08;;;18.13;;
35675;SDS011;21790;42.668;23.298;2023-02-12T08:44:25;32.90;;;17.70;;
35675;SDS011;21790;42.668;23.298;2023-02-12T08:46:51;35.03;;;19.25;;
35675;SDS011;21790;42.668;23.298;2023-02-12T08:49:18;33.08;;;19.15;;
35675;SDS011;21790;42.668;23.298;2023-02-12T08:51:47;35.15;;;18.55;;
35675;SDS011;21790;42.668;23.298;2023-02-12T08:54:16;34.33;;;17.50;;
35675;SDS011;21790;42.668;23.298;2023-02-12T08:56:44;36.50;;;18.40;;
35675;SDS011;21790;42.668;23.298;2023-02-12T08:59:10;35.38;;;18.17;;
35675;SDS011;21790;42.668;23.298;2023-02-12T09:01:38;37.88;;;19.17;;
35675;SDS011;21790;42.668;23.298;2023-02-12T09:04:08;36.70;;;18.90;;
35675;SDS011;21790;42.668;23.298;2023-02-12T09:06:41;34.85;;;19.95;;
35675;SDS011;21790;42.668;23.298;2023-02-12T09:09:07;29.90;;;17.17;;
35675;SDS011;21790;42.668;23.298;2023-02-12T09:11:33;32.83;;;17.75;;
35675;SDS011;21790;42.668;23.298;2023-02-12T09:14:06;36.33;;;18.23;;
35675;SDS011;21790;42.668;23.298;2023-02-12T09:16:35;34.38;;;19.67;;
35675;SDS011;21790;42.668;23.298;2023-02-12T09:19:03;30.23;;;17.73;;
35675;SDS011;21790;42.668;23.298;2023-02-12T09:21:29;35.13;;;18.98;;
35675;SDS011;21790;42.668;23.298;2023-02-12T09:23:54;31.17;;;18.02;;
35675;SDS011;21790;42.668;23.298;2023-02-12T09:26:22;34.15;;;18.90;;
35675;SDS011;21790;42.668;23.298;2023-02-12T09:34:03;36.67;;;20.23;;
35675;SDS011;21790;42.668;23.298;2023-02-12T09:36:30;36.35;;;18.65;;
35675;SDS011;21790;42.668;23.298;2023-02-12T09:38:56;32.55;;;18.45;;
35675;SDS011;21790;42.668;23.298;2023-02-12T09:44:13;36.92;;;19.45;;
35675;SDS011;21790;42.668;23.298;2023-02-12T09:53:15;38.33;;;21.05;;
35675;SDS011;21790;42.668;23.298;2023-02-12T09:55:43;38.58;;;20.20;;
35675;SDS011;21790;42.668;23.298;2023-02-12T09:58:11;36.40;;;19.67;;
35675;SDS011;21790;42.668;23.298;2023-02-12T10:00:41;33.50;;;18.77;;
35675;SDS011;21790;42.668;23.298;2023-02-12T10:03:12;38.38;;;19.70;;
35675;SDS011;21790;42.668;23.298;2023-02-12T10:05:42;34.92;;;20.00;;
35675;SDS011;21790;42.668;23.298;2023-02-12T10:08:17;40.53;;;20.50;;
35675;SDS011;21790;42.668;23.298;2023-02-12T10:10:51;35.40;;;20.98;;
35675;SDS011;21790;42.668;23.298;2023-02-12T10:16:09;41.67;;;22.05;;
35675;SDS011;21790;42.668;23.298;2023-02-12T10:26:39;40.05;;;21.98;;
35675;SDS011;21790;42.668;23.298;2023-02-12T10:29:54;42.78;;;22.52;;
35675;SDS011;21790;42.668;23.298;2023-02-12T10:32:05;39.25;;;22.50;;
35675;SDS011;21790;42.668;23.298;2023-02-12T10:34:38;41.28;;;21.88;;
35675;SDS011;21790;42.668;23.298;2023-02-12T10:39:47;41.45;;;21.90;;
35675;SDS011;21790;42.668;23.298;2023-02-12T10:42:20;44.60;;;23.95;;
35675;SDS011;21790;42.668;23.298;2023-02-12T10:44:58;46.47;;;24.38;;
35675;SDS011;21790;42.668;23.298;2023-02-12T10:47:23;47.00;;;25.67;;
35675;SDS011;21790;42.668;23.298;2023-02-12T10:50:07;45.15;;;24.25;;
35675;SDS011;21790;42.668;23.298;2023-02-12T10:53:15;47.47;;;23.30;;
35675;SDS011;21790;42.668;23.298;2023-02-12T10:55:41;47.70;;;23.65;;
35675;SDS011;21790;42.668;23.298;2023-02-12T10:58:15;49.15;;;23.52;;
35675;SDS011;21790;42.668;23.298;2023-02-12T11:00:43;44.53;;;23.55;;
35675;SDS011;21790;42.668;23.298;2023-02-12T11:05:38;44.50;;;23.55;;
35675;SDS011;21790;42.668;23.298;2023-02-12T11:08:06;42.78;;;22.65;;
35675;SDS011;21790;42.668;23.298;2023-02-12T11:10:35;40.47;;;23.05;;
35675;SDS011;21790;42.668;23.298;2023-02-12T11:13:03;40.42;;;22.17;;
35675;SDS011;21790;42.668;23.298;2023-02-12T11:20:57;41.38;;;23.83;;
35675;SDS011;21790;42.668;23.298;2023-02-12T11:23:32;42.22;;;24.00;;
35675;SDS011;21790;42.668;23.298;2023-02-12T11:26:00;45.40;;;23.60;;
35675;SDS011;21790;42.668;23.298;2023-02-12T11:28:28;42.65;;;23.05;;
35675;SDS011;21790;42.668;23.298;2023-02-12T11:33:31;43.25;;;24.00;;
35675;SDS011;21790;42.668;23.298;2023-02-12T11:36:00;48.17;;;23.92;;
35675;SDS011;21790;42.668;23.298;2023-02-12T11:38:38;41.03;;;22.75;;
35675;SDS011;21790;42.668;23.298;2023-02-12T11:43:58;46.28;;;23.85;;
35675;SDS011;21790;42.668;23.298;2023-02-12T11:46:25;48.15;;;23.95;;
35675;SDS011;21790;42.668;23.298;2023-02-12T11:48:52;41.47;;;22.67;;
35675;SDS011;21790;42.668;23.298;2023-02-12T11:51:22;47.22;;;23.83;;
35675;SDS011;21790;42.668;23.298;2023-02-12T11:53:51;37.28;;;22.33;;
35675;SDS011;21790;42.668;23.298;2023-02-12T11:56:19;47.28;;;26.70;;
35675;SDS011;21790;42.668;23.298;2023-02-12T11:58:46;43.35;;;23.55;;
35675;SDS011;21790;42.668;23.298;2023-02-12T12:09:26;45.40;;;23.35;;
35675;SDS011;21790;42.668;23.298;2023-02-12T12:12:01;47.00;;;24.88;;
35675;SDS011;21790;42.668;23.298;2023-02-12T12:15:00;52.57;;;24.93;;
35675;SDS011;21790;42.668;23.298;2023-02-12T12:20:42;43.25;;;23.02;;
35675;SDS011;21790;42.668;23.298;2023-02-12T12:23:18;39.75;;;23.02;;
35675;SDS011;21790;42.668;23.298;2023-02-12T12:25:56;45.47;;;22.77;;
35675;SDS011;21790;42.668;23.298;2023-02-12T12:28:35;51.30;;;27.15;;
35675;SDS011;21790;42.668;23.298;2023-02-12T12:31:19;49.65;;;24.85;;
35675;SDS011;21790;42.668;23.298;2023-02-12T12:36:33;40.97;;;22.52;;
35675;SDS011;21790;42.668;23.298;2023-02-12T12:44:57;42.90;;;23.42;;
35675;SDS011;21790;42.668;23.298;2023-02-12T12:50:20;46.00;;;23.27;;
35675;SDS011;21790;42.668;23.298;2023-02-12T12:58:23;42.08;;;22.70;;
35675;SDS011;21790;42.668;23.298;2023-02-12T13:11:18;42.00;;;24.77;;
35675;SDS011;21790;42.668;23.298;2023-02-12T13:14:43;45.13;;;24.77;;
35675;SDS011;21790;42.668;23.298;2023-02-12T13:23:16;45.50;;;24.88;;
35675;SDS011;21790;42.668;23.298;2023-02-12T13:25:59;51.80;;;24.87;;
35675;SDS011;21790;42.668;23.298;2023-02-12T13:28:47;44.97;;;26.05;;
35675;SDS011;21790;42.668;23.298;2023-02-12T13:31:19;54.35;;;27.10;;
35675;SDS011;21790;42.668;23.298;2023-02-12T13:33:53;47.17;;;25.42;;
35675;SDS011;21790;42.668;23.298;2023-02-12T13:36:22;50.42;;;27.27;;
35675;SDS011;21790;42.668;23.298;2023-02-12T13:39:21;51.88;;;26.42;;
35675;SDS011;21790;42.668;23.298;2023-02-12T13:41:39;44.25;;;24.52;;
35675;SDS011;21790;42.668;23.298;2023-02-12T13:44:16;50.28;;;26.92;;
35675;SDS011;21790;42.668;23.298;2023-02-12T13:52:24;53.53;;;29.23;;
35675;SDS011;21790;42.668;23.298;2023-02-12T14:04:13;48.17;;;26.42;;
35675;SDS011;21790;42.668;23.298;2023-02-12T14:06:50;48.13;;;26.05;;
35675;SDS011;21790;42.668;23.298;2023-02-12T14:09:30;48.17;;;26.30;;
35675;SDS011;21790;42.668;23.298;2023-02-12T14:18:19;53.72;;;27.17;;
35675;SDS011;21790;42.668;23.298;2023-02-12T14:21:32;51.88;;;26.73;;
35675;SDS011;21790;42.668;23.298;2023-02-12T14:26:25;50.08;;;27.20;;
35675;SDS011;21790;42.668;23.298;2023-02-12T14:29:14;51.75;;;28.60;;
35675;SDS011;21790;42.668;23.298;2023-02-12T14:36:45;47.22;;;27.58;;
35675;SDS011;21790;42.668;23.298;2023-02-12T14:41:48;50.75;;;27.90;;
35675;SDS011;21790;42.668;23.298;2023-02-12T14:49:33;53.78;;;27.90;;
35675;SDS011;21790;42.668;23.298;2023-02-12T14:54:51;47.63;;;26.48;;
35675;SDS011;21790;42.668;23.298;2023-02-12T14:59:49;55.72;;;29.30;;
35675;SDS011;21790;42.668;23.298;2023-02-12T15:02:24;52.67;;;28.88;;
35675;SDS011;21790;42.668;23.298;2023-02-12T15:04:53;54.33;;;29.20;;
35675;SDS011;21790;42.668;23.298;2023-02-12T15:13:23;55.33;;;30.08;;
35675;SDS011;21790;42.668;23.298;2023-02-12T15:18:43;54.30;;;29.27;;
35675;SDS011;21790;42.668;23.298;2023-02-12T15:21:25;56.78;;;30.77;;
35675;SDS011;21790;42.668;23.298;2023-02-12T15:26:46;56.50;;;30.58;;
35675;SDS011;21790;42.668;23.298;2023-02-12T15:29:29;56.60;;;30.33;;
35675;SDS011;21790;42.668;23.298;2023-02-12T15:32:05;61.78;;;32.25;;
35675;SDS011;21790;42.668;23.298;2023-02-12T15:34:36;60.78;;;31.05;;
35675;SDS011;21790;42.668;23.298;2023-02-12T15:37:04;57.90;;;30.05;;
35675;SDS011;21790;42.668;23.298;2023-02-12T15:39:44;56.20;;;31.20;;
35675;SDS011;21790;42.668;23.298;2023-02-12T15:42:22;65.50;;;31.92;;
35675;SDS011;21790;42.668;23.298;2023-02-12T15:44:47;69.30;;;35.25;;
35675;SDS011;21790;42.668;23.298;2023-02-12T15:47:14;61.70;;;31.45;;
35675;SDS011;21790;42.668;23.298;2023-02-12T15:49:41;61.10;;;32.10;;
35675;SDS011;21790;42.668;23.298;2023-02-12T15:52:09;70.03;;;34.30;;
35675;SDS011;21790;42.668;23.298;2023-02-12T15:54:58;60.17;;;32.45;;
35675;SDS011;21790;42.668;23.298;2023-02-12T15:57:25;55.72;;;30.58;;
35675;SDS011;21790;42.668;23.298;2023-02-12T15:59:55;63.35;;;32.05;;
35675;SDS011;21790;42.668;23.298;2023-02-12T16:02:29;62.70;;;31.92;;
35675;SDS011;21790;42.668;23.298;2023-02-12T16:04:57;58.78;;;30.95;;
35675;SDS011;21790;42.668;23.298;2023-02-12T16:07:25;62.47;;;32.58;;
35675;SDS011;21790;42.668;23.298;2023-02-12T16:09:55;63.75;;;33.05;;
35675;SDS011;21790;42.668;23.298;2023-02-12T16:12:22;64.10;;;33.42;;
35675;SDS011;21790;42.668;23.298;2023-02-12T16:14:53;68.30;;;34.47;;
35675;SDS011;21790;42.668;23.298;2023-02-12T16:23:07;69.47;;;35.38;;
35675;SDS011;21790;42.668;23.298;2023-02-12T16:25:33;67.38;;;34.55;;
35675;SDS011;21790;42.668;23.298;2023-02-12T16:28:06;63.78;;;34.67;;
35675;SDS011;21790;42.668;23.298;2023-02-12T16:33:44;61.80;;;32.97;;
35675;SDS011;21790;42.668;23.298;2023-02-12T16:38:49;47.33;;;25.85;;
35675;SDS011;21790;42.668;23.298;2023-02-12T16:43:41;67.35;;;35.30;;
35675;SDS011;21790;42.668;23.298;2023-02-12T16:46:07;64.97;;;34.75;;
35675;SDS011;21790;42.668;23.298;2023-02-12T16:48:37;66.78;;;34.75;;
35675;SDS011;21790;42.668;23.298;2023-02-12T16:51:05;64.90;;;35.25;;
35675;SDS011;21790;42.668;23.298;2023-02-12T16:56:08;72.72;;;37.38;;
35675;SDS011;21790;42.668;23.298;2023-02-12T16:58:40;68.63;;;36.83;;
35675;SDS011;21790;42.668;23.298;2023-02-12T17:01:06;69.95;;;36.35;;
35675;SDS011;21790;42.668;23.298;2023-02-12T17:03:32;67.78;;;36.25;;
35675;SDS011;21790;42.668;23.298;2023-02-12T17:05:58;71.93;;;36.60;;
35675;SDS011;21790;42.668;23.298;2023-02-12T17:08:24;75.35;;;37.63;;
35675;SDS011;21790;42.668;23.298;2023-02-12T17:10:50;77.88;;;38.10;;
35675;SDS011;21790;42.668;23.298;2023-02-12T17:13:16;73.38;;;37.65;;
35675;SDS011;21790;42.668;23.298;2023-02-12T17:15:48;71.43;;;37.17;;
35675;SDS011;21790;42.668;23.298;2023-02-12T17:18:17;79.70;;;39.58;;
35675;SDS011;21790;42.668;23.298;2023-02-12T17:20:45;75.82;;;38.88;;
35675;SDS011;21790;42.668;23.298;2023-02-12T17:23:16;75.70;;;38.67;;
35675;SDS011;21790;42.668;23.298;2023-02-12T17:25:41;81.13;;;40.03;;
35675;SDS011;21790;42.668;23.298;2023-02-12T17:28:07;81.30;;;40.85;;
35675;SDS011;21790;42.668;23.298;2023-02-12T17:30:33;84.47;;;41.45;;
35675;SDS011;21790;42.668;23.298;2023-02-12T17:32:58;85.53;;;42.80;;
35675;SDS011;21790;42.668;23.298;2023-02-12T17:35:24;85.65;;;41.88;;
35675;SDS011;21790;42.668;23.298;2023-02-12T17:37:50;84.97;;;42.15;;
35675;SDS011;21790;42.668;23.298;2023-02-12T17:40:16;86.20;;;41.65;;
35675;SDS011;21790;42.668;23.298;2023-02-12T17:42:44;84.57;;;42.42;;
35675;SDS011;21790;42.668;23.298;2023-02-12T17:45:10;89.38;;;42.35;;
35675;SDS011;21790;42.668;23.298;2023-02-12T17:47:36;89.00;;;43.55;;
35675;SDS011;21790;42.668;23.298;2023-02-12T17:50:08;87.93;;;42.35;;
35675;SDS011;21790;42.668;23.298;2023-02-12T17:52:35;89.70;;;43.22;;
35675;SDS011;21790;42.668;23.298;2023-02-12T17:55:00;87.05;;;43.55;;
35675;SDS011;21790;42.668;23.298;2023-02-12T17:57:26;86.88;;;43.55;;
35675;SDS011;21790;42.668;23.298;2023-02-12T17:59:51;90.45;;;43.53;;